createdAt,value
2022-11-16T00:01:30.974Z,9.60
2022-11-16T00:03:59.890Z,10.50
2022-11-16T00:06:27.955Z,9.27
2022-11-16T00:09:16.745Z,9.50
2022-11-16T00:11:43.859Z,8.60
2022-11-16T00:14:10.788Z,10.13
2022-11-16T00:16:37.868Z,9.63
2022-11-16T00:19:06.103Z,7.50
2022-11-16T00:21:33.612Z,8.43
2022-11-16T00:24:00.747Z,9.67
2022-11-16T00:26:27.931Z,6.87
2022-11-16T00:28:56.266Z,6.60
2022-11-16T00:31:24.295Z,8.00
2022-11-16T00:33:51.718Z,7.60
2022-11-16T00:36:18.845Z,8.20
2022-11-16T00:38:46.992Z,7.00
2022-11-16T00:41:13.948Z,6.30
2022-11-16T00:43:40.882Z,8.70
2022-11-16T00:46:08.931Z,7.90
2022-11-16T00:48:36.067Z,8.57
2022-11-16T00:51:03.464Z,9.17
2022-11-16T00:53:30.361Z,8.87
2022-11-16T00:55:57.366Z,8.17
2022-11-16T00:58:25.472Z,9.90
2022-11-16T01:01:05.368Z,7.63
2022-11-16T01:03:32.808Z,6.97
2022-11-16T01:06:04.609Z,9.37
2022-11-16T01:08:32.406Z,9.60
2022-11-16T01:11:20.474Z,8.93
2022-11-16T01:13:48.429Z,7.20
2022-11-16T01:16:17.066Z,8.97
2022-11-16T01:18:48.044Z,8.63
2022-11-16T01:21:15.104Z,8.20
2022-11-16T01:23:42.024Z,7.90
2022-11-16T01:26:09.079Z,8.00
2022-11-16T01:28:37.245Z,7.27
2022-11-16T01:31:04.831Z,7.87
2022-11-16T01:33:36.183Z,8.93
2022-11-16T01:36:08.825Z,7.83
2022-11-16T01:38:36.291Z,8.80
2022-11-16T01:41:03.643Z,9.80
2022-11-16T01:43:54.273Z,7.40
2022-11-16T01:46:23.938Z,8.70
2022-11-16T01:49:03.402Z,7.57
2022-11-16T01:51:31.398Z,8.77
2022-11-16T01:54:01.188Z,8.70
2022-11-16T01:56:31.105Z,8.83
2022-11-16T01:59:15.377Z,6.93
2022-11-16T02:01:42.395Z,7.83
2022-11-16T02:04:14.180Z,8.43
2022-11-16T02:07:23.748Z,9.33
2022-11-16T02:10:12.380Z,7.03
2022-11-16T02:13:21.310Z,8.13
2022-11-16T02:16:26.768Z,7.77
2022-11-16T02:19:22.344Z,7.77
2022-11-16T02:22:19.371Z,7.57
2022-11-16T02:25:11.188Z,6.80
2022-11-16T02:28:11.681Z,7.43
2022-11-16T02:30:43.125Z,9.40
2022-11-16T02:33:13.564Z,8.67
2022-11-16T02:35:51.248Z,8.50
2022-11-16T02:38:28.033Z,10.50
2022-11-16T02:41:05.050Z,8.07
2022-11-16T02:43:37.168Z,9.33
2022-11-16T02:46:09.091Z,7.07
2022-11-16T02:48:42.357Z,6.47
2022-11-16T02:51:10.077Z,7.57
2022-11-16T02:53:42.886Z,7.20
2022-11-16T02:56:15.481Z,6.07
2022-11-16T02:58:42.896Z,6.80
2022-11-16T03:01:15.854Z,7.07
2022-11-16T03:03:42.945Z,6.67
2022-11-16T03:06:21.823Z,4.57
2022-11-16T03:09:15.776Z,6.30
2022-11-16T03:12:01.657Z,3.30
2022-11-16T03:14:47.680Z,3.27
2022-11-16T03:17:23.888Z,4.53
2022-11-16T03:20:15.619Z,3.27
2022-11-16T03:22:47.300Z,5.20
2022-11-16T03:25:19.121Z,3.30
2022-11-16T03:27:56.993Z,2.97
2022-11-16T03:30:26.696Z,2.97
2022-11-16T03:33:08.719Z,3.03
2022-11-16T03:35:43.502Z,2.80
2022-11-16T03:38:12.710Z,2.47
2022-11-16T03:40:46.111Z,3.10
2022-11-16T03:43:15.047Z,2.73
2022-11-16T03:45:42.675Z,2.17
2022-11-16T03:48:10.218Z,3.50
2022-11-16T03:50:37.237Z,2.60
2022-11-16T03:53:04.140Z,2.40
2022-11-16T03:55:31.577Z,2.33
2022-11-16T03:57:58.970Z,2.00
2022-11-16T04:00:25.959Z,3.83
2022-11-16T04:02:53.335Z,3.40
2022-11-16T04:05:41.121Z,2.87
2022-11-16T04:08:35.292Z,2.57
2022-11-16T04:11:22.147Z,3.70
2022-11-16T04:14:10.255Z,1.97
2022-11-16T04:16:58.853Z,1.50
2022-11-16T04:19:45.113Z,3.33
2022-11-16T04:22:36.979Z,1.70
2022-11-16T04:25:14.243Z,1.87
2022-11-16T04:27:59.635Z,2.60
2022-11-16T04:30:47.869Z,2.67
2022-11-16T04:33:33.400Z,1.60
2022-11-16T04:36:20.805Z,2.17
2022-11-16T04:38:48.700Z,1.90
2022-11-16T04:41:34.666Z,1.60
2022-11-16T04:44:01.775Z,1.80
2022-11-16T04:46:47.108Z,1.57
2022-11-16T04:49:14.035Z,1.43
2022-11-16T04:51:40.994Z,2.23
2022-11-16T04:54:07.932Z,1.30
2022-11-16T04:56:34.895Z,1.50
2022-11-16T04:59:02.236Z,1.73
2022-11-16T05:01:48.425Z,1.50
2022-11-16T05:04:15.393Z,1.73
2022-11-16T05:06:43.411Z,1.20
2022-11-16T05:09:10.335Z,1.23
2022-11-16T05:11:37.394Z,1.23
2022-11-16T05:14:05.904Z,2.23
2022-11-16T05:16:33.767Z,3.50
2022-11-16T05:19:19.243Z,2.40
2022-11-16T05:21:46.376Z,2.97
2022-11-16T05:24:34.988Z,4.30
2022-11-16T05:27:06.525Z,2.87
2022-11-16T05:29:34.277Z,4.33
2022-11-16T05:32:01.957Z,4.47
2022-11-16T05:34:29.384Z,4.30
2022-11-16T05:36:57.291Z,4.33
2022-11-16T05:39:24.846Z,5.73
2022-11-16T05:41:53.710Z,6.80
2022-11-16T05:44:21.046Z,5.10
2022-11-16T05:46:48.823Z,5.97
2022-11-16T05:49:17.592Z,7.70
2022-11-16T05:51:46.440Z,8.20
2022-11-16T05:54:18.872Z,6.40
2022-11-16T05:56:47.192Z,7.93
2022-11-16T05:59:16.696Z,6.50
2022-11-16T06:01:44.951Z,6.97
2022-11-16T06:04:13.304Z,7.53
2022-11-16T06:06:40.893Z,7.40
2022-11-16T06:09:09.437Z,8.50
2022-11-16T06:11:38.296Z,7.80
2022-11-16T06:14:06.897Z,6.53
2022-11-16T06:16:35.018Z,7.03
2022-11-16T06:19:05.488Z,8.57
2022-11-16T06:21:33.076Z,7.13
2022-11-16T06:24:05.808Z,7.43
2022-11-16T06:26:32.684Z,8.80
2022-11-16T06:28:59.930Z,10.00
2022-11-16T06:31:28.115Z,10.63
2022-11-16T06:33:55.698Z,8.97
2022-11-16T06:36:26.760Z,10.27
2022-11-16T06:38:53.801Z,10.73
2022-11-16T06:41:22.353Z,10.60
2022-11-16T06:43:51.303Z,11.33
2022-11-16T06:46:21.257Z,13.77
2022-11-16T06:48:48.482Z,12.90
2022-11-16T06:51:15.613Z,12.17
2022-11-16T06:53:42.775Z,10.77
2022-11-16T06:56:13.742Z,11.67
2022-11-16T06:58:45.608Z,10.77
2022-11-16T07:01:14.537Z,9.83
2022-11-16T07:03:43.016Z,10.50
2022-11-16T07:06:11.986Z,10.23
2022-11-16T07:08:41.212Z,10.70
2022-11-16T07:11:10.549Z,11.07
2022-11-16T07:13:38.496Z,8.83
2022-11-16T07:16:11.429Z,8.40
2022-11-16T07:18:43.291Z,8.43
2022-11-16T07:21:13.426Z,7.83
2022-11-16T07:23:41.463Z,7.13
2022-11-16T07:26:11.798Z,7.50
2022-11-16T07:28:48.168Z,7.23
2022-11-16T07:31:18.591Z,5.97
2022-11-16T07:33:46.364Z,5.37
2022-11-16T07:36:31.991Z,5.47
2022-11-16T07:38:59.329Z,5.33
2022-11-16T07:41:26.343Z,4.77
2022-11-16T07:44:10.883Z,4.30
2022-11-16T07:46:48.754Z,4.23
2022-11-16T07:49:18.751Z,3.97
2022-11-16T07:51:51.216Z,4.00
2022-11-16T07:54:36.649Z,4.03
2022-11-16T07:57:04.118Z,3.77
2022-11-16T07:59:31.205Z,3.57
2022-11-16T08:01:59.433Z,3.70
2022-11-16T08:04:27.430Z,3.70
2022-11-16T08:06:54.681Z,3.20
2022-11-16T08:09:22.796Z,3.63
2022-11-16T08:11:51.864Z,3.93
2022-11-16T08:14:19.585Z,4.30
2022-11-16T08:16:49.200Z,4.53
2022-11-16T08:19:17.460Z,3.93
2022-11-16T08:21:45.809Z,4.13
2022-11-16T08:24:14.212Z,2.73
2022-11-16T08:26:42.918Z,3.90
2022-11-16T08:29:14.876Z,2.73
2022-11-16T08:31:46.871Z,3.23
2022-11-16T08:34:17.970Z,2.20
2022-11-16T08:36:49.550Z,2.03
2022-11-16T08:39:18.468Z,2.20
2022-11-16T08:41:45.697Z,2.50
2022-11-16T08:44:13.143Z,2.47
2022-11-16T08:46:45.600Z,3.13
2022-11-16T08:49:32.820Z,2.50
2022-11-16T08:52:00.233Z,3.73
2022-11-16T08:54:29.352Z,3.67
2022-11-16T08:56:56.968Z,3.80
2022-11-16T08:59:24.031Z,3.60
2022-11-16T09:01:54.977Z,4.10
2022-11-16T09:04:22.923Z,5.23
2022-11-16T09:06:50.101Z,7.83
2022-11-16T09:09:17.065Z,6.07
2022-11-16T09:11:43.951Z,7.27
2022-11-16T09:14:10.884Z,8.20
2022-11-16T09:16:37.885Z,6.73
2022-11-16T09:19:04.812Z,8.57
2022-11-16T09:21:31.957Z,6.87
2022-11-16T09:23:58.898Z,6.27
2022-11-16T09:26:26.342Z,5.13
2022-11-16T09:28:55.949Z,4.77
2022-11-16T09:31:23.851Z,4.33
2022-11-16T09:33:50.987Z,4.10
2022-11-16T09:36:17.943Z,4.10
2022-11-16T09:41:51.323Z,6.07
2022-11-16T09:44:37.966Z,4.40
2022-11-16T09:47:15.009Z,5.57
2022-11-16T09:49:48.535Z,3.90
2022-11-16T09:52:31.565Z,5.73
2022-11-16T09:55:02.020Z,4.37
2022-11-16T09:57:34.338Z,3.93
2022-11-16T10:00:13.963Z,5.23
2022-11-16T10:02:48.747Z,5.87
2022-11-16T10:05:24.211Z,6.83
2022-11-16T10:08:10.223Z,4.00
2022-11-16T10:10:41.818Z,3.77
2022-11-16T10:13:20.834Z,4.63
2022-11-16T10:16:26.388Z,4.93
2022-11-16T10:18:58.197Z,6.30
2022-11-16T10:21:55.393Z,6.87
2022-11-16T10:24:57.900Z,5.73
2022-11-16T10:27:34.579Z,5.70
2022-11-16T10:30:11.940Z,6.50
2022-11-16T10:33:10.890Z,5.97
2022-11-16T10:35:45.546Z,6.27
2022-11-16T10:38:22.325Z,5.37
2022-11-16T10:41:04.914Z,4.37
2022-11-16T10:43:33.125Z,4.97
2022-11-16T10:46:01.025Z,3.80
2022-11-16T10:48:27.959Z,3.60
2022-11-16T10:50:55.238Z,4.27
2022-11-16T10:53:33.228Z,3.20
2022-11-16T10:56:31.944Z,5.03
2022-11-16T10:59:02.794Z,5.40
2022-11-16T11:01:38.644Z,3.23
2022-11-16T11:04:25.067Z,2.47
2022-11-16T11:07:21.185Z,4.00
2022-11-16T11:09:54.933Z,2.97
2022-11-16T11:12:39.004Z,2.30
2022-11-16T11:15:11.946Z,2.20
2022-11-16T11:17:44.682Z,2.57
2022-11-16T11:20:17.847Z,4.23
2022-11-16T11:23:02.480Z,2.83
2022-11-16T11:25:33.674Z,3.00
2022-11-16T11:28:21.770Z,4.00
2022-11-16T11:31:00.328Z,3.30
2022-11-16T11:33:33.190Z,3.33
2022-11-16T11:36:09.659Z,3.17
2022-11-16T11:39:21.617Z,4.17
2022-11-16T11:42:14.904Z,3.70
2022-11-16T11:44:50.391Z,2.93
2022-11-16T11:50:14.644Z,3.47
2022-11-16T11:52:47.665Z,6.23
2022-11-16T11:55:17.843Z,2.00
2022-11-16T11:57:47.652Z,2.20
2022-11-16T12:00:16.021Z,3.67
2022-11-16T12:03:21.706Z,3.70
2022-11-16T12:06:03.639Z,4.40
2022-11-16T12:08:47.489Z,2.83
2022-11-16T12:11:55.854Z,4.07
2022-11-16T12:14:46.365Z,5.27
2022-11-16T12:17:20.520Z,4.27
2022-11-16T12:20:11.485Z,3.33
2022-11-16T12:22:48.173Z,4.67
2022-11-16T12:25:15.026Z,4.30
2022-11-16T12:27:53.434Z,3.43
2022-11-16T12:30:24.812Z,3.27
2022-11-16T12:33:10.589Z,4.57
2022-11-16T12:35:44.862Z,2.70
2022-11-16T12:38:54.333Z,4.83
2022-11-16T12:41:37.923Z,3.50
2022-11-16T12:44:12.224Z,3.17
2022-11-16T12:47:03.981Z,3.80
2022-11-16T12:49:39.800Z,3.47
2022-11-16T12:52:47.250Z,2.30
2022-11-16T12:55:26.385Z,4.07
2022-11-16T12:58:20.770Z,3.37
2022-11-16T13:01:02.901Z,3.43
2022-11-16T13:03:43.878Z,1.70
2022-11-16T13:06:25.510Z,2.60
2022-11-16T13:08:58.217Z,1.80
2022-11-16T13:11:30.636Z,2.63
2022-11-16T13:14:02.035Z,3.23
2022-11-16T13:16:29.489Z,2.37
2022-11-16T13:18:58.338Z,2.40
2022-11-16T13:21:32.739Z,2.90
2022-11-16T13:24:37.935Z,3.13
2022-11-16T13:27:28.110Z,3.43
2022-11-16T13:30:13.650Z,1.60
2022-11-16T13:32:46.707Z,1.83
2022-11-16T13:35:18.115Z,3.17
2022-11-16T13:37:46.770Z,4.43
2022-11-16T13:40:33.460Z,2.87
2022-11-16T13:43:06.011Z,2.40
2022-11-16T13:45:51.211Z,2.37
2022-11-16T13:48:22.283Z,2.57
2022-11-16T13:50:53.849Z,2.00
2022-11-16T13:54:25.253Z,2.37
2022-11-16T13:56:12.895Z,2.10
2022-11-16T13:58:46.985Z,3.47
2022-11-16T14:01:14.770Z,2.33
2022-11-16T14:03:51.577Z,1.73
2022-11-16T14:06:24.682Z,2.33
2022-11-16T14:08:52.774Z,3.70
2022-11-16T14:11:28.859Z,3.63
2022-11-16T14:13:55.924Z,2.30
2022-11-16T14:16:22.879Z,1.30
2022-11-16T14:19:01.262Z,2.37
2022-11-16T14:22:18.808Z,1.90
2022-11-16T14:25:01.549Z,1.30
2022-11-16T14:27:46.013Z,1.63
2022-11-16T14:30:27.220Z,3.30
2022-11-16T14:32:55.899Z,2.40
2022-11-16T14:35:35.263Z,2.60
2022-11-16T14:38:16.876Z,1.63
2022-11-16T14:40:47.230Z,1.13
2022-11-16T14:43:28.340Z,2.17
2022-11-16T14:46:15.955Z,1.00
2022-11-16T14:48:45.436Z,1.37
2022-11-16T14:51:35.422Z,1.60
2022-11-16T14:54:07.677Z,2.77
2022-11-16T14:56:34.674Z,2.97
2022-11-16T14:59:02.952Z,2.30
2022-11-16T15:01:33.955Z,2.03
2022-11-16T15:04:04.694Z,2.00
2022-11-16T15:06:51.116Z,1.30
2022-11-16T15:09:35.301Z,2.60
2022-11-16T15:12:23.712Z,1.90
2022-11-16T15:14:53.148Z,1.67
2022-11-16T15:17:26.116Z,1.97
2022-11-16T15:20:24.636Z,1.43
2022-11-16T15:22:54.097Z,1.30
2022-11-16T15:25:31.709Z,1.57
2022-11-16T15:28:01.653Z,2.20
2022-11-16T15:30:32.641Z,3.70
2022-11-16T15:33:01.104Z,2.20
2022-11-16T15:35:33.657Z,1.43
2022-11-16T15:38:11.913Z,1.50
2022-11-16T15:40:38.941Z,1.77
2022-11-16T15:43:07.044Z,1.30
2022-11-16T15:45:34.641Z,2.73
2022-11-16T15:48:03.475Z,1.13
2022-11-16T15:50:30.680Z,2.43
2022-11-16T15:52:59.757Z,1.30
2022-11-16T15:55:49.975Z,2.00
2022-11-16T15:58:27.885Z,1.97
2022-11-16T16:00:55.231Z,3.13
2022-11-16T16:03:23.380Z,1.57
2022-11-16T16:05:51.285Z,1.70
2022-11-16T16:08:39.329Z,2.57
2022-11-16T16:11:10.625Z,1.20
2022-11-16T16:13:41.590Z,1.87
2022-11-16T16:16:24.248Z,4.33
2022-11-16T16:18:51.912Z,3.03
2022-11-16T16:21:19.421Z,3.40
2022-11-16T16:23:47.362Z,2.80
2022-11-16T16:26:15.513Z,1.30
2022-11-16T16:28:42.681Z,2.07
2022-11-16T16:31:10.245Z,3.33
2022-11-16T16:33:38.044Z,2.73
2022-11-16T16:36:05.604Z,2.83
2022-11-16T16:38:32.627Z,2.60
2022-11-16T16:41:05.707Z,3.63
2022-11-16T16:43:33.052Z,2.27
2022-11-16T16:46:02.304Z,2.27
2022-11-16T16:48:29.372Z,3.10
2022-11-16T16:50:56.396Z,3.00
2022-11-16T16:53:23.292Z,2.67
2022-11-16T16:55:50.229Z,2.80
2022-11-16T16:58:17.193Z,4.00
2022-11-16T17:00:44.262Z,3.83
2022-11-16T17:03:11.384Z,2.83
2022-11-16T17:05:38.529Z,4.00
2022-11-16T17:08:05.821Z,2.83
2022-11-16T17:10:32.738Z,2.10
2022-11-16T17:13:02.757Z,2.20
2022-11-16T17:15:29.855Z,3.80
2022-11-16T17:17:58.979Z,2.03
2022-11-16T17:20:26.064Z,3.57
2022-11-16T17:22:53.126Z,3.40
2022-11-16T17:25:20.817Z,2.83
2022-11-16T17:27:48.006Z,3.57
2022-11-16T17:30:15.885Z,2.27
2022-11-16T17:32:42.833Z,5.07
2022-11-16T17:35:10.206Z,3.27
2022-11-16T17:37:37.132Z,2.43
2022-11-16T17:40:04.273Z,5.47
2022-11-16T17:42:33.502Z,3.53
2022-11-16T17:45:00.483Z,6.10
2022-11-16T17:47:27.468Z,3.40
2022-11-16T17:49:54.439Z,3.17
2022-11-16T17:52:21.464Z,2.37
2022-11-16T17:54:48.370Z,7.03
2022-11-16T17:57:15.319Z,3.93
2022-11-16T17:59:42.284Z,4.73
2022-11-16T18:02:12.439Z,5.57
2022-11-16T18:05:04.499Z,4.27
2022-11-16T18:07:33.502Z,4.33
2022-11-16T18:10:00.521Z,2.83
2022-11-16T18:12:27.400Z,4.70
2022-11-16T18:15:21.275Z,4.07
2022-11-16T18:17:41.683Z,6.33
2022-11-16T18:20:09.382Z,5.20
2022-11-16T18:22:36.278Z,6.23
2022-11-16T18:25:03.295Z,4.17
2022-11-16T18:27:30.212Z,3.87
2022-11-16T18:29:57.062Z,5.63
2022-11-16T18:32:24.011Z,3.53
2022-11-16T18:34:50.945Z,3.00
2022-11-16T18:37:17.877Z,2.73
2022-11-16T18:39:44.715Z,3.73
2022-11-16T18:42:12.272Z,6.13
2022-11-16T18:44:39.146Z,4.33
2022-11-16T18:47:06.026Z,4.87
2022-11-16T18:49:32.963Z,6.17
2022-11-16T18:51:59.829Z,4.40
2022-11-16T18:54:26.704Z,3.93
2022-11-16T18:56:55.791Z,6.40
2022-11-16T18:59:23.684Z,5.07
2022-11-16T19:01:50.554Z,2.73
2022-11-16T19:04:17.376Z,3.40
2022-11-16T19:06:44.404Z,4.87
2022-11-16T19:09:11.455Z,4.83
2022-11-16T19:11:38.418Z,4.80
2022-11-16T19:14:07.474Z,3.33
2022-11-16T19:16:34.639Z,3.47
2022-11-16T19:19:01.847Z,4.07
2022-11-16T19:21:29.098Z,4.20
2022-11-16T19:23:56.812Z,5.30
2022-11-16T19:26:26.544Z,4.77
2022-11-16T19:28:54.069Z,3.27
2022-11-16T19:31:24.026Z,4.50
2022-11-16T19:34:06.106Z,5.07
2022-11-16T19:36:35.660Z,8.23
2022-11-16T19:39:03.536Z,4.23
2022-11-16T19:41:30.532Z,4.90
2022-11-16T19:43:59.949Z,3.87
2022-11-16T19:46:28.876Z,4.63
2022-11-16T19:48:56.784Z,3.40
2022-11-16T19:51:27.035Z,5.00
2022-11-16T19:53:54.812Z,3.30
2022-11-16T19:56:23.172Z,3.40
2022-11-16T19:58:50.550Z,5.23
2022-11-16T20:01:20.640Z,3.67
2022-11-16T20:03:48.697Z,2.87
2022-11-16T20:06:19.002Z,5.53
2022-11-16T20:08:51.127Z,5.17
2022-11-16T20:11:20.748Z,2.63
2022-11-16T20:13:52.871Z,3.43
2022-11-16T20:16:22.263Z,3.77
2022-11-16T20:18:49.906Z,4.80
2022-11-16T20:21:23.597Z,3.10
2022-11-16T20:23:53.750Z,5.23
2022-11-16T20:26:21.873Z,3.70
2022-11-16T20:28:53.234Z,4.37
2022-11-16T20:31:22.555Z,2.73
2022-11-16T20:33:54.659Z,3.20
2022-11-16T20:36:23.373Z,4.67
2022-11-16T20:38:50.860Z,4.87
2022-11-16T20:41:23.325Z,4.57
2022-11-16T20:43:52.236Z,3.47
2022-11-16T20:46:21.613Z,3.20
2022-11-16T20:48:48.653Z,4.37
2022-11-16T20:51:17.369Z,4.13
2022-11-16T20:53:45.745Z,5.27
2022-11-16T20:56:13.478Z,6.77
2022-11-16T20:58:41.116Z,3.87
2022-11-16T21:01:12.077Z,4.77
2022-11-16T21:03:39.627Z,3.53
2022-11-16T21:06:10.184Z,3.97
2022-11-16T21:08:38.487Z,3.30
2022-11-16T21:11:12.920Z,3.00
2022-11-16T21:13:58.290Z,4.20
2022-11-16T21:16:25.544Z,3.67
2022-11-16T21:18:54.790Z,4.13
2022-11-16T21:21:22.011Z,4.87
2022-11-16T21:23:51.921Z,3.97
2022-11-16T21:26:28.511Z,3.77
2022-11-16T21:28:56.403Z,4.30
2022-11-16T21:31:26.019Z,5.53
2022-11-16T21:33:53.931Z,3.10
2022-11-16T21:36:23.740Z,5.47
2022-11-16T21:38:51.254Z,5.80
2022-11-16T21:41:20.917Z,3.67
2022-11-16T21:43:48.037Z,3.30
2022-11-16T21:46:19.844Z,3.50
2022-11-16T21:48:48.055Z,5.33
2022-11-16T21:51:17.468Z,3.43
2022-11-16T21:53:44.792Z,4.30
2022-11-16T21:56:20.256Z,3.63
2022-11-16T21:58:47.628Z,4.07
2022-11-16T22:01:16.194Z,2.87
2022-11-16T22:03:44.765Z,3.20
2022-11-16T22:06:34.531Z,3.87
2022-11-16T22:09:01.723Z,5.03
2022-11-16T22:11:28.701Z,4.97
2022-11-16T22:13:55.629Z,4.13
2022-11-16T22:16:23.518Z,3.80
2022-11-16T22:18:50.881Z,3.63
2022-11-16T22:21:18.029Z,4.73
2022-11-16T22:23:44.971Z,5.20
2022-11-16T22:26:13.602Z,5.33
2022-11-16T22:28:40.910Z,6.23
2022-11-16T22:31:11.337Z,4.30
2022-11-16T22:33:38.630Z,4.20
2022-11-16T22:36:08.315Z,4.47
2022-11-16T22:38:35.702Z,10.23
2022-11-16T22:41:02.724Z,5.00
2022-11-16T22:43:30.702Z,5.17
2022-11-16T22:46:02.677Z,3.93
2022-11-16T22:48:38.317Z,4.23
2022-11-16T22:51:07.847Z,4.47
2022-11-16T22:53:35.295Z,3.77
2022-11-16T22:56:10.122Z,5.40
2022-11-16T22:58:38.129Z,5.57
2022-11-16T23:01:07.507Z,7.40
2022-11-16T23:03:35.045Z,4.50
2022-11-16T23:06:02.818Z,4.33
2022-11-16T23:08:30.107Z,7.70
2022-11-16T23:11:27.160Z,4.80
2022-11-16T23:14:13.525Z,4.80
2022-11-16T23:16:41.432Z,6.67
2022-11-16T23:19:28.814Z,4.70
2022-11-16T23:22:15.202Z,6.27
2022-11-16T23:25:01.583Z,4.07
2022-11-16T23:27:49.005Z,4.17
2022-11-16T23:30:17.377Z,6.63
2022-11-16T23:32:44.557Z,5.67
2022-11-16T23:35:11.705Z,4.00
2022-11-16T23:37:57.900Z,4.83
2022-11-16T23:40:27.462Z,4.30
2022-11-16T23:43:13.773Z,4.17
2022-11-16T23:45:41.301Z,4.97
2022-11-16T23:48:09.419Z,3.83
2022-11-16T23:50:37.095Z,3.87
2022-11-16T23:53:04.948Z,5.80
2022-11-16T23:55:38.367Z,4.07
2022-11-16T23:58:06.886Z,3.87
